createdAt,value
2018-01-29T00:00:05.874Z,49.67
2018-01-29T00:01:10.113Z,54.23
2018-01-29T00:02:14.574Z,42.03
2018-01-29T00:03:19.555Z,45.37
2018-01-29T00:04:24.102Z,56.77
2018-01-29T00:05:28.520Z,53.07
2018-01-29T00:06:34.295Z,54.00
2018-01-29T00:07:38.487Z,51.63
2018-01-29T00:08:43.467Z,55.97
2018-01-29T00:09:47.708Z,55.53
2018-01-29T00:10:52.230Z,61.50
2018-01-29T00:11:56.936Z,56.50
2018-01-29T00:13:01.336Z,51.27
2018-01-29T00:14:05.519Z,51.50
2018-01-29T00:15:09.733Z,46.07
2018-01-29T00:16:13.940Z,54.70
2018-01-29T00:17:18.166Z,51.30
2018-01-29T00:18:22.778Z,56.10
2018-01-29T00:19:28.002Z,52.07
2018-01-29T00:20:32.884Z,49.57
2018-01-29T00:21:37.165Z,50.53
2018-01-29T00:22:41.441Z,46.03
2018-01-29T00:23:46.463Z,54.00
2018-01-29T00:24:52.339Z,56.67
2018-01-29T00:25:58.043Z,48.37
2018-01-29T00:27:03.388Z,49.80
2018-01-29T00:28:08.747Z,47.80
2018-01-29T00:29:13.722Z,50.83
2018-01-29T00:30:17.921Z,51.30
2018-01-29T00:31:22.770Z,47.27
2018-01-29T00:32:27.644Z,41.70
2018-01-29T00:33:32.047Z,49.70
2018-01-29T00:34:36.252Z,45.40
2018-01-29T00:35:41.261Z,45.50
2018-01-29T00:36:45.441Z,48.63
2018-01-29T00:37:49.728Z,63.50
2018-01-29T00:38:55.365Z,43.80
2018-01-29T00:40:00.079Z,47.47
2018-01-29T00:41:04.348Z,46.20
2018-01-29T00:42:08.531Z,47.63
2018-01-29T00:43:12.741Z,62.80
2018-01-29T00:44:17.368Z,43.60
2018-01-29T00:45:22.692Z,50.83
2018-01-29T00:46:27.060Z,39.13
2018-01-29T00:47:31.524Z,38.73
2018-01-29T00:48:35.759Z,48.13
2018-01-29T00:49:40.012Z,43.40
2018-01-29T00:50:45.050Z,46.57
2018-01-29T00:51:50.013Z,50.57
2018-01-29T00:52:55.033Z,43.17
2018-01-29T00:53:59.298Z,52.93
2018-01-29T00:55:03.788Z,50.23
2018-01-29T00:56:08.392Z,50.73
2018-01-29T00:57:12.617Z,50.70
2018-01-29T00:58:16.804Z,44.73
2018-01-29T00:59:21.110Z,47.00
2018-01-29T01:00:25.838Z,52.53
2018-01-29T01:01:30.225Z,45.80
2018-01-29T01:02:34.594Z,41.47
2018-01-29T01:03:38.803Z,46.37
2018-01-29T01:04:42.999Z,51.30
2018-01-29T01:05:47.654Z,41.97
2018-01-29T01:06:52.666Z,39.73
2018-01-29T01:07:57.151Z,38.97
2018-01-29T01:09:01.448Z,41.60
2018-01-29T01:10:06.471Z,54.43
2018-01-29T01:11:11.433Z,48.73
2018-01-29T01:12:15.770Z,47.93
2018-01-29T01:13:19.988Z,46.87
2018-01-29T01:14:24.981Z,50.80
2018-01-29T01:15:30.364Z,46.73
2018-01-29T01:16:34.753Z,51.33
2018-01-29T01:17:38.992Z,49.63
2018-01-29T01:18:43.179Z,46.40
2018-01-29T01:19:47.383Z,42.33
2018-01-29T01:20:51.767Z,45.17
2018-01-29T01:21:57.011Z,46.97
2018-01-29T01:23:01.365Z,44.20
2018-01-29T01:24:05.564Z,39.40
2018-01-29T01:25:09.780Z,39.20
2018-01-29T01:26:14.737Z,39.03
2018-01-29T01:27:18.939Z,38.00
2018-01-29T01:28:24.334Z,38.50
2018-01-29T01:29:29.868Z,42.33
2018-01-29T01:30:34.184Z,41.93
2018-01-29T01:31:38.389Z,44.83
2018-01-29T01:32:42.600Z,41.03
2018-01-29T01:33:47.703Z,43.53
2018-01-29T01:34:52.168Z,37.17
2018-01-29T01:35:56.786Z,44.47
2018-01-29T01:37:01.366Z,35.43
2018-01-29T01:38:05.668Z,47.13
2018-01-29T01:39:10.675Z,44.63
2018-01-29T01:40:14.864Z,38.20
2018-01-29T01:41:19.115Z,27.13
2018-01-29T01:42:24.335Z,43.17
2018-01-29T01:43:28.835Z,37.40
2018-01-29T01:44:33.124Z,37.37
2018-01-29T01:45:37.351Z,35.37
2018-01-29T01:46:41.630Z,29.33
2018-01-29T01:47:45.835Z,34.73
2018-01-29T01:48:51.189Z,28.00
2018-01-29T01:49:56.642Z,31.00
2018-01-29T01:51:02.577Z,28.53
2018-01-29T01:52:07.219Z,30.43
2018-01-29T01:53:11.433Z,35.23
2018-01-29T01:54:15.643Z,27.37
2018-01-29T01:55:19.854Z,28.60
2018-01-29T01:56:24.270Z,23.60
2018-01-29T01:57:29.904Z,28.83
2018-01-29T01:58:34.539Z,22.10
2018-01-29T01:59:39.098Z,27.90
2018-01-29T02:00:43.310Z,24.07
2018-01-29T02:01:47.487Z,22.60
2018-01-29T02:02:52.889Z,22.90
2018-01-29T02:03:57.134Z,22.83
2018-01-29T02:05:01.354Z,28.37
2018-01-29T02:06:05.538Z,24.47
2018-01-29T02:07:09.782Z,27.50
2018-01-29T02:08:14.011Z,26.53
2018-01-29T02:09:18.224Z,30.00
2018-01-29T02:10:23.695Z,28.00
2018-01-29T02:11:28.094Z,23.43
2018-01-29T02:12:32.316Z,25.27
2018-01-29T02:13:36.545Z,23.27
2018-01-29T02:14:41.722Z,22.17
2018-01-29T02:15:45.941Z,22.97
2018-01-29T02:16:50.142Z,16.53
2018-01-29T02:17:54.903Z,26.43
2018-01-29T02:18:59.142Z,27.07
2018-01-29T02:20:03.447Z,23.30
2018-01-29T02:21:07.769Z,25.40
2018-01-29T02:22:12.076Z,24.40
2018-01-29T02:23:16.287Z,24.10
2018-01-29T02:24:20.483Z,27.83
2018-01-29T02:25:24.949Z,29.97
2018-01-29T02:26:29.275Z,27.13
2018-01-29T02:27:34.495Z,29.40
2018-01-29T02:28:38.711Z,25.90
2018-01-29T02:29:42.911Z,24.67
2018-01-29T02:30:47.107Z,19.93
2018-01-29T02:31:51.652Z,20.70
2018-01-29T02:32:56.776Z,18.70
2018-01-29T02:34:01.968Z,17.53
2018-01-29T02:35:06.180Z,19.30
2018-01-29T02:36:10.375Z,20.30
2018-01-29T02:37:15.400Z,20.53
2018-01-29T02:38:20.518Z,18.13
2018-01-29T02:39:25.236Z,16.57
2018-01-29T02:40:30.504Z,18.03
2018-01-29T02:41:34.934Z,13.13
2018-01-29T02:42:39.142Z,22.07
2018-01-29T02:43:43.613Z,17.23
2018-01-29T02:44:47.830Z,20.60
2018-01-29T02:45:54.394Z,24.80
2018-01-29T02:46:58.952Z,21.30
2018-01-29T02:48:03.297Z,24.73
2018-01-29T02:49:07.590Z,23.20
2018-01-29T02:50:11.815Z,18.10
2018-01-29T02:51:17.711Z,20.30
2018-01-29T02:52:22.829Z,22.50
2018-01-29T02:53:27.383Z,18.83
2018-01-29T02:54:31.804Z,11.83
2018-01-29T02:55:36.000Z,17.50
2018-01-29T02:56:40.214Z,14.87
2018-01-29T02:57:44.413Z,13.30
2018-01-29T02:58:49.461Z,18.50
2018-01-29T02:59:54.668Z,14.73
2018-01-29T03:00:59.075Z,15.03
2018-01-29T03:02:03.386Z,15.37
2018-01-29T03:03:07.559Z,10.83
2018-01-29T03:04:11.788Z,12.50
2018-01-29T03:05:15.982Z,15.20
2018-01-29T03:06:20.804Z,16.13
2018-01-29T03:07:25.744Z,18.20
2018-01-29T03:08:30.074Z,11.13
2018-01-29T03:09:35.180Z,19.63
2018-01-29T03:10:39.394Z,13.20
2018-01-29T03:11:43.603Z,16.10
2018-01-29T03:12:47.790Z,12.93
2018-01-29T03:13:53.732Z,14.17
2018-01-29T03:14:58.143Z,14.63
2018-01-29T03:16:02.370Z,12.43
2018-01-29T03:17:06.596Z,15.13
2018-01-29T03:18:10.795Z,11.30
2018-01-29T03:19:15.592Z,14.93
2018-01-29T03:20:20.620Z,16.20
2018-01-29T03:21:25.323Z,15.93
2018-01-29T03:22:30.397Z,13.37
2018-01-29T03:23:35.136Z,16.13
2018-01-29T03:24:39.348Z,17.27
2018-01-29T03:25:43.525Z,14.43
2018-01-29T03:26:47.718Z,14.37
2018-01-29T03:27:54.007Z,10.33
2018-01-29T03:28:59.284Z,18.83
2018-01-29T03:30:03.705Z,12.53
2018-01-29T03:31:07.923Z,21.10
2018-01-29T03:32:12.118Z,14.77
2018-01-29T03:33:16.483Z,18.00
2018-01-29T03:34:20.901Z,14.93
2018-01-29T03:35:25.519Z,16.20
2018-01-29T03:36:29.820Z,16.20
2018-01-29T03:37:34.146Z,19.00
2018-01-29T03:38:38.697Z,15.77
2018-01-29T03:39:42.946Z,18.20
2018-01-29T03:40:47.920Z,15.07
2018-01-29T03:41:53.271Z,17.43
2018-01-29T03:42:57.534Z,16.20
2018-01-29T03:44:02.549Z,23.70
2018-01-29T03:45:07.538Z,24.70
2018-01-29T03:46:11.803Z,14.57
2018-01-29T03:47:16.766Z,18.20
2018-01-29T03:48:21.761Z,11.50
2018-01-29T03:49:26.365Z,15.67
2018-01-29T03:50:30.707Z,17.97
2018-01-29T03:51:36.394Z,10.03
2018-01-29T03:52:40.576Z,12.83
2018-01-29T03:53:44.746Z,15.90
2018-01-29T03:54:49.320Z,17.80
2018-01-29T03:55:53.723Z,16.53
2018-01-29T03:56:57.964Z,15.03
2018-01-29T03:58:02.478Z,21.63
2018-01-29T03:59:06.638Z,16.97
2018-01-29T04:00:11.680Z,10.80
2018-01-29T04:01:16.662Z,16.03
2018-01-29T04:02:22.213Z,22.73
2018-01-29T04:03:26.617Z,11.80
2018-01-29T04:04:31.462Z,23.23
2018-01-29T04:05:35.741Z,16.73
2018-01-29T04:06:39.932Z,22.87
2018-01-29T04:07:44.126Z,17.20
2018-01-29T04:08:49.105Z,15.30
2018-01-29T04:09:54.878Z,15.67
2018-01-29T04:11:00.518Z,13.77
2018-01-29T04:12:04.988Z,12.33
2018-01-29T04:13:09.176Z,25.70
2018-01-29T04:14:13.395Z,19.20
2018-01-29T04:15:17.600Z,15.90
2018-01-29T04:16:22.042Z,16.70
2018-01-29T04:17:29.057Z,15.10
2018-01-29T04:18:33.416Z,34.37
2018-01-29T04:19:37.916Z,16.77
2018-01-29T04:20:42.902Z,19.50
2018-01-29T04:21:47.097Z,16.23
2018-01-29T04:22:54.872Z,17.13
2018-01-29T04:23:59.668Z,19.30
2018-01-29T04:25:04.200Z,12.50
2018-01-29T04:26:08.380Z,14.93
2018-01-29T04:27:12.588Z,14.43
2018-01-29T04:28:16.777Z,14.03
2018-01-29T04:29:21.017Z,14.13
2018-01-29T04:30:25.791Z,14.10
2018-01-29T04:31:30.455Z,18.17
2018-01-29T04:32:34.690Z,13.63
2018-01-29T04:33:39.631Z,20.03
2018-01-29T04:34:43.846Z,17.70
2018-01-29T04:35:48.052Z,16.63
2018-01-29T04:36:52.916Z,14.80
2018-01-29T04:37:57.980Z,21.97
2018-01-29T04:39:03.137Z,17.73
2018-01-29T04:40:07.345Z,11.23
2018-01-29T04:41:11.554Z,21.47
2018-01-29T04:42:15.831Z,14.50
2018-01-29T04:43:20.116Z,10.20
2018-01-29T04:44:25.383Z,12.73
2018-01-29T04:45:29.729Z,27.03
2018-01-29T04:46:34.403Z,13.80
2018-01-29T04:47:38.601Z,28.33
2018-01-29T04:48:42.799Z,15.60
2018-01-29T04:49:46.977Z,16.23
2018-01-29T04:50:52.165Z,20.03
2018-01-29T04:51:56.884Z,12.80
2018-01-29T04:53:01.400Z,14.07
2018-01-29T04:54:06.539Z,12.87
2018-01-29T04:55:10.743Z,26.40
2018-01-29T04:56:14.944Z,21.17
2018-01-29T04:57:19.548Z,19.00
2018-01-29T04:58:24.856Z,16.97
2018-01-29T04:59:29.264Z,20.47
2018-01-29T05:00:34.591Z,19.27
2018-01-29T05:01:38.808Z,13.70
2018-01-29T05:02:43.807Z,16.90
2018-01-29T05:03:48.078Z,20.30
2018-01-29T05:04:52.446Z,19.73
2018-01-29T05:05:58.292Z,18.40
2018-01-29T05:07:03.384Z,19.63
2018-01-29T05:08:07.905Z,20.67
2018-01-29T05:09:12.400Z,13.77
2018-01-29T05:10:16.743Z,15.90
2018-01-29T05:11:21.314Z,20.17
2018-01-29T05:12:27.434Z,17.63
2018-01-29T05:13:31.795Z,17.13
2018-01-29T05:14:36.069Z,15.00
2018-01-29T05:15:40.291Z,15.07
2018-01-29T05:16:44.487Z,16.37
2018-01-29T05:17:48.665Z,16.77
2018-01-29T05:18:53.119Z,17.77
2018-01-29T05:19:58.289Z,21.30
2018-01-29T05:21:02.813Z,22.53
2018-01-29T05:22:07.027Z,15.27
2018-01-29T05:23:11.264Z,20.03
2018-01-29T05:24:15.479Z,17.63
2018-01-29T05:25:19.748Z,23.03
2018-01-29T05:26:24.571Z,19.53
2018-01-29T05:27:29.824Z,17.67
2018-01-29T05:28:34.878Z,21.30
2018-01-29T05:29:39.099Z,15.30
2018-01-29T05:30:43.388Z,19.67
2018-01-29T05:31:47.550Z,14.43
2018-01-29T05:32:52.574Z,26.80
2018-01-29T05:33:57.697Z,18.53
2018-01-29T05:35:06.408Z,18.03
2018-01-29T05:36:10.695Z,13.60
2018-01-29T05:37:19.224Z,18.53
2018-01-29T05:38:24.737Z,16.27
2018-01-29T05:39:29.108Z,18.17
2018-01-29T05:40:33.423Z,20.07
2018-01-29T05:41:38.218Z,15.30
2018-01-29T05:42:42.399Z,18.53
2018-01-29T05:43:46.596Z,19.40
2018-01-29T05:44:50.903Z,12.77
2018-01-29T05:45:55.316Z,16.70
2018-01-29T05:47:00.367Z,17.67
2018-01-29T05:48:04.623Z,14.63
2018-01-29T05:49:08.872Z,17.67
2018-01-29T05:50:13.903Z,18.93
2018-01-29T05:51:18.912Z,35.67
2018-01-29T05:52:24.051Z,10.03
2018-01-29T05:53:28.330Z,15.93
2018-01-29T05:54:32.604Z,14.07
2018-01-29T05:55:36.831Z,11.73
2018-01-29T05:56:41.027Z,14.83
2018-01-29T05:57:45.314Z,21.03
2018-01-29T05:58:49.512Z,17.40
2018-01-29T05:59:54.041Z,19.57
2018-01-29T06:00:58.554Z,13.80
2018-01-29T06:02:03.007Z,16.93
2018-01-29T06:03:07.243Z,25.30
2018-01-29T06:04:11.463Z,13.83
2018-01-29T06:05:15.761Z,24.67
2018-01-29T06:06:19.963Z,14.57
2018-01-29T06:07:24.281Z,25.63
2018-01-29T06:08:29.352Z,13.83
2018-01-29T06:09:34.328Z,12.83
2018-01-29T06:10:38.567Z,11.60
2018-01-29T06:11:42.768Z,12.63
2018-01-29T06:12:46.996Z,18.13
2018-01-29T06:13:51.745Z,16.20
2018-01-29T06:14:56.400Z,16.10
2018-01-29T06:16:00.699Z,14.33
2018-01-29T06:17:04.948Z,10.73
2018-01-29T06:18:09.207Z,12.07
2018-01-29T06:19:13.420Z,19.43
2018-01-29T06:20:18.435Z,16.43
2018-01-29T06:21:23.809Z,18.03
2018-01-29T06:22:28.094Z,27.10
2018-01-29T06:23:32.362Z,17.80
2018-01-29T06:24:36.646Z,15.97
2018-01-29T06:25:40.853Z,15.50
2018-01-29T06:26:45.040Z,12.97
2018-01-29T06:27:49.563Z,13.97
2018-01-29T06:28:55.709Z,13.80
2018-01-29T06:30:00.236Z,13.77
2018-01-29T06:31:04.584Z,16.60
2018-01-29T06:32:08.769Z,16.20
2018-01-29T06:33:13.810Z,19.83
2018-01-29T06:34:19.419Z,10.93
2018-01-29T06:35:24.653Z,14.33
2018-01-29T06:36:29.304Z,12.97
2018-01-29T06:37:33.538Z,16.43
2018-01-29T06:38:37.791Z,13.80
2018-01-29T06:39:42.042Z,10.80
2018-01-29T06:40:46.218Z,29.53
2018-01-29T06:41:50.561Z,16.10
2018-01-29T06:42:55.834Z,18.00
2018-01-29T06:44:00.580Z,15.57
2018-01-29T06:45:04.817Z,14.30
2018-01-29T06:46:09.789Z,18.53
2018-01-29T06:47:14.046Z,22.50
2018-01-29T06:48:18.248Z,18.00
2018-01-29T06:49:23.158Z,14.77
2018-01-29T06:50:27.653Z,8.83
2018-01-29T06:51:31.935Z,14.33
2018-01-29T06:52:36.227Z,17.90
2018-01-29T06:53:40.492Z,13.83
2018-01-29T06:54:44.674Z,18.23
2018-01-29T06:55:49.690Z,13.93
2018-01-29T06:56:55.339Z,21.57
2018-01-29T06:58:00.423Z,8.20
2018-01-29T06:59:05.588Z,12.40
2018-01-29T07:00:09.788Z,13.13
2018-01-29T07:01:14.000Z,27.77
2018-01-29T07:02:18.171Z,17.23
2018-01-29T07:03:22.671Z,13.17
2018-01-29T07:04:27.317Z,18.53
2018-01-29T07:05:31.602Z,18.33
2018-01-29T07:06:35.785Z,19.27
2018-01-29T07:07:40.733Z,12.53
2018-01-29T07:08:44.946Z,16.23
2018-01-29T07:09:49.154Z,14.93
2018-01-29T07:10:53.636Z,13.10
2018-01-29T07:11:57.921Z,15.90
2018-01-29T07:13:02.222Z,13.50
2018-01-29T07:14:06.438Z,17.20
2018-01-29T07:15:10.659Z,10.80
2018-01-29T07:16:14.933Z,19.50
2018-01-29T07:17:19.158Z,11.63
2018-01-29T07:18:24.945Z,20.60
2018-01-29T07:19:30.008Z,12.43
2018-01-29T07:20:34.302Z,22.53
2018-01-29T07:21:38.536Z,27.00
2018-01-29T07:22:43.536Z,14.83
2018-01-29T07:23:47.740Z,9.93
2018-01-29T07:24:52.304Z,12.60
2018-01-29T07:25:58.153Z,13.30
2018-01-29T07:27:03.183Z,14.03
2018-01-29T07:28:07.384Z,20.33
2018-01-29T07:29:12.332Z,13.90
2018-01-29T07:30:16.498Z,17.23
2018-01-29T07:31:21.356Z,22.13
2018-01-29T07:32:26.371Z,16.10
2018-01-29T07:33:30.779Z,9.40
2018-01-29T07:34:35.750Z,11.70
2018-01-29T07:35:39.924Z,19.23
2018-01-29T07:36:44.914Z,14.07
2018-01-29T07:37:49.111Z,14.43
2018-01-29T07:38:54.024Z,14.30
2018-01-29T07:39:58.390Z,18.47
2018-01-29T07:41:03.092Z,11.60
2018-01-29T07:42:07.299Z,11.47
2018-01-29T07:43:11.567Z,14.23
2018-01-29T07:44:15.811Z,13.60
2018-01-29T07:45:19.995Z,30.50
2018-01-29T07:46:24.392Z,21.67
2018-01-29T07:47:28.798Z,15.23
2018-01-29T07:48:33.057Z,11.40
2018-01-29T07:49:37.295Z,15.30
2018-01-29T07:50:41.476Z,18.87
2018-01-29T07:51:45.676Z,13.10
2018-01-29T07:52:49.927Z,23.30
2018-01-29T07:53:54.360Z,12.33
2018-01-29T07:54:58.678Z,12.10
2018-01-29T07:56:03.860Z,11.60
2018-01-29T07:57:08.067Z,13.33
2018-01-29T07:58:12.296Z,11.23
2018-01-29T07:59:16.496Z,9.70
2018-01-29T08:00:20.729Z,18.90
2018-01-29T08:01:25.714Z,6.03
2018-01-29T08:02:29.985Z,13.07
2018-01-29T08:03:35.459Z,14.03
2018-01-29T08:04:39.652Z,17.30
2018-01-29T08:05:44.592Z,14.03
2018-01-29T08:06:49.536Z,8.50
2018-01-29T08:07:55.187Z,15.90
2018-01-29T08:09:00.416Z,10.17
2018-01-29T08:10:04.643Z,18.60
2018-01-29T08:11:08.890Z,14.57
2018-01-29T08:12:13.059Z,9.90
2018-01-29T08:13:18.229Z,10.63
2018-01-29T08:14:22.580Z,10.27
2018-01-29T08:15:27.500Z,20.40
2018-01-29T08:16:32.593Z,10.73
2018-01-29T08:17:36.980Z,17.37
2018-01-29T08:18:41.183Z,6.07
2018-01-29T08:19:45.391Z,14.93
2018-01-29T08:20:49.572Z,7.50
2018-01-29T08:21:54.636Z,8.73
2018-01-29T08:22:59.185Z,15.77
2018-01-29T08:24:03.555Z,12.00
2018-01-29T08:25:07.787Z,12.43
2018-01-29T08:26:11.959Z,17.63
2018-01-29T08:27:17.619Z,18.13
2018-01-29T08:28:23.373Z,19.10
2018-01-29T08:29:28.198Z,12.60
2018-01-29T08:30:32.909Z,11.30
2018-01-29T08:31:37.226Z,13.70
2018-01-29T08:32:41.472Z,12.33
2018-01-29T08:33:45.671Z,13.23
2018-01-29T08:34:49.898Z,11.90
2018-01-29T08:35:55.946Z,14.33
2018-01-29T08:37:00.292Z,20.20
2018-01-29T08:38:05.328Z,14.40
2018-01-29T08:39:09.532Z,12.10
2018-01-29T08:40:13.740Z,8.80
2018-01-29T08:41:17.956Z,11.83
2018-01-29T08:42:23.212Z,11.33
2018-01-29T08:43:27.989Z,13.20
2018-01-29T08:44:32.689Z,10.90
2018-01-29T08:45:37.061Z,17.00
2018-01-29T08:46:42.036Z,11.90
2018-01-29T08:47:46.331Z,9.60
2018-01-29T08:48:51.516Z,9.63
2018-01-29T08:49:56.283Z,9.20
2018-01-29T08:51:00.747Z,14.03
2018-01-29T08:52:05.346Z,10.23
2018-01-29T08:53:09.615Z,9.30
2018-01-29T08:54:14.559Z,17.10
2018-01-29T08:55:18.767Z,13.23
2018-01-29T08:56:23.819Z,12.90
2018-01-29T08:57:28.177Z,11.80
2018-01-29T08:58:33.658Z,16.67
2018-01-29T08:59:37.854Z,11.13
2018-01-29T09:00:42.836Z,12.37
2018-01-29T09:01:47.110Z,12.87
2018-01-29T09:02:51.356Z,10.90
2018-01-29T09:03:55.755Z,12.63
2018-01-29T09:04:59.962Z,15.93
2018-01-29T09:06:04.155Z,8.03
2018-01-29T09:07:08.332Z,18.23
2018-01-29T09:08:12.514Z,12.83
2018-01-29T09:09:18.052Z,12.50
2018-01-29T09:10:22.596Z,14.43
2018-01-29T09:11:27.249Z,11.23
2018-01-29T09:12:31.505Z,14.13
2018-01-29T09:13:35.784Z,15.10
2018-01-29T09:14:40.091Z,12.67
2018-01-29T09:15:44.284Z,7.30
2018-01-29T09:16:50.089Z,10.47
2018-01-29T09:17:54.657Z,11.80
2018-01-29T09:18:59.009Z,10.80
2018-01-29T09:20:03.419Z,14.73
2018-01-29T09:21:07.639Z,14.50
2018-01-29T09:22:11.868Z,7.73
2018-01-29T09:23:16.088Z,11.90
2018-01-29T09:24:20.375Z,20.90
2018-01-29T09:25:25.799Z,12.80
2018-01-29T09:26:30.098Z,13.90
2018-01-29T09:27:34.474Z,7.07
2018-01-29T09:28:38.655Z,10.20
2018-01-29T09:29:42.831Z,7.10
2018-01-29T09:30:47.915Z,8.27
2018-01-29T09:31:53.719Z,9.43
2018-01-29T09:32:58.604Z,13.03
2018-01-29T09:34:03.619Z,11.87
2018-01-29T09:35:07.939Z,13.90
2018-01-29T09:36:12.157Z,12.40
2018-01-29T09:37:16.400Z,12.50
2018-01-29T09:38:21.232Z,11.33
2018-01-29T09:39:26.361Z,16.40
2018-01-29T09:40:30.782Z,11.23
2018-01-29T09:41:35.127Z,12.77
2018-01-29T09:42:39.605Z,13.27
2018-01-29T09:43:43.807Z,9.57
2018-01-29T09:44:48.071Z,4.60
2018-01-29T09:45:52.363Z,16.13
2018-01-29T09:46:58.224Z,11.93
2018-01-29T09:48:02.669Z,9.27
2018-01-29T09:49:06.935Z,10.93
2018-01-29T09:50:11.479Z,10.60
2018-01-29T09:51:15.676Z,8.27
2018-01-29T09:52:19.966Z,7.07
2018-01-29T09:53:25.825Z,7.53
2018-01-29T09:54:30.901Z,11.60
2018-01-29T09:55:35.127Z,7.03
2018-01-29T09:56:40.124Z,8.73
2018-01-29T09:57:44.352Z,6.77
2018-01-29T09:58:48.622Z,8.77
2018-01-29T09:59:53.131Z,9.17
2018-01-29T10:00:58.334Z,4.50
2018-01-29T10:02:03.057Z,12.63
2018-01-29T10:03:08.024Z,8.90
2018-01-29T10:04:12.272Z,11.50
2018-01-29T10:05:16.497Z,10.27
2018-01-29T10:06:21.070Z,15.10
2018-01-29T10:07:25.903Z,6.43
2018-01-29T10:08:30.402Z,11.10
2018-01-29T10:09:34.686Z,11.30
2018-01-29T10:10:38.916Z,7.50
2018-01-29T10:11:43.128Z,7.03
2018-01-29T10:12:47.339Z,11.43
2018-01-29T10:13:51.639Z,7.20
2018-01-29T10:14:55.996Z,10.47
2018-01-29T10:16:00.416Z,9.30
2018-01-29T10:17:04.771Z,9.57
2018-01-29T10:18:09.737Z,14.50
2018-01-29T10:19:13.927Z,11.60
2018-01-29T10:20:18.119Z,11.07
2018-01-29T10:21:23.407Z,10.43
2018-01-29T10:22:28.500Z,14.23
2018-01-29T10:23:32.760Z,3.80
2018-01-29T10:24:37.059Z,16.03
2018-01-29T10:25:41.404Z,7.73
2018-01-29T10:26:45.623Z,6.50
2018-01-29T10:27:49.888Z,10.63
2018-01-29T10:28:54.390Z,9.83
2018-01-29T10:29:58.806Z,13.13
2018-01-29T10:31:03.110Z,7.60
2018-01-29T10:32:07.334Z,6.63
2018-01-29T10:33:11.566Z,11.30
2018-01-29T10:34:15.770Z,10.67
2018-01-29T10:35:19.959Z,24.17
2018-01-29T10:36:24.355Z,9.20
2018-01-29T10:37:28.964Z,10.17
2018-01-29T10:38:33.645Z,5.03
2018-01-29T10:39:37.834Z,14.87
2018-01-29T10:40:42.036Z,8.90
2018-01-29T10:41:46.342Z,9.20
2018-01-29T10:42:51.030Z,5.33
2018-01-29T10:43:56.207Z,12.27
2018-01-29T10:45:00.601Z,10.33
2018-01-29T10:46:04.830Z,6.10
2018-01-29T10:47:09.141Z,3.23
2018-01-29T10:48:13.576Z,12.00
2018-01-29T10:49:18.495Z,4.90
2018-01-29T10:50:23.206Z,11.17
2018-01-29T10:51:27.750Z,9.47
2018-01-29T10:52:32.054Z,10.77
2018-01-29T10:53:36.336Z,9.10
2018-01-29T10:54:41.299Z,10.57
2018-01-29T10:55:45.587Z,7.40
2018-01-29T10:56:49.856Z,8.67
2018-01-29T10:57:54.570Z,8.73
2018-01-29T10:58:59.965Z,6.77
2018-01-29T11:00:04.333Z,8.43
2018-01-29T11:01:27.557Z,8.03
2018-01-29T11:02:31.869Z,12.50
2018-01-29T11:03:36.086Z,6.87
2018-01-29T11:04:40.318Z,3.53
2018-01-29T11:05:44.524Z,6.30
2018-01-29T11:06:48.727Z,17.53
2018-01-29T11:07:53.507Z,5.60
2018-01-29T11:08:57.823Z,6.53
2018-01-29T11:10:02.091Z,6.63
2018-01-29T11:11:06.318Z,9.50
2018-01-29T11:12:10.507Z,13.80
2018-01-29T11:13:14.683Z,16.57
2018-01-29T11:14:18.979Z,7.33
2018-01-29T11:15:24.146Z,15.70
2018-01-29T11:16:28.604Z,6.47
2018-01-29T11:17:33.790Z,8.83
2018-01-29T11:18:37.977Z,5.90
2018-01-29T11:19:42.259Z,8.80
2018-01-29T11:20:46.453Z,2.23
2018-01-29T11:21:53.878Z,6.83
2018-01-29T11:22:58.634Z,8.53
2018-01-29T11:24:03.020Z,4.00
2018-01-29T11:25:07.283Z,6.40
2018-01-29T11:26:11.628Z,7.80
2018-01-29T11:27:16.569Z,5.70
2018-01-29T11:28:20.766Z,5.53
2018-01-29T11:29:25.700Z,6.27
2018-01-29T11:30:30.005Z,11.00
2018-01-29T11:31:34.199Z,9.40
2018-01-29T11:32:39.243Z,5.43
2018-01-29T11:33:43.443Z,4.73
2018-01-29T11:34:47.686Z,9.60
2018-01-29T11:35:51.898Z,10.13
2018-01-29T11:36:56.102Z,7.27
2018-01-29T11:38:00.554Z,6.13
2018-01-29T11:39:05.017Z,7.33
2018-01-29T11:40:09.340Z,6.07
2018-01-29T11:41:13.558Z,13.70
2018-01-29T11:42:17.735Z,5.70
2018-01-29T11:43:21.967Z,10.07
2018-01-29T11:44:26.174Z,3.77
2018-01-29T11:45:31.892Z,7.27
2018-01-29T11:46:36.091Z,16.70
2018-01-29T11:47:40.299Z,4.50
2018-01-29T11:48:44.538Z,7.40
2018-01-29T11:49:49.588Z,13.63
2018-01-29T11:50:54.558Z,7.97
2018-01-29T11:51:58.830Z,10.17
2018-01-29T11:53:03.774Z,5.67
2018-01-29T11:54:07.994Z,13.33
2018-01-29T11:55:12.248Z,5.80
2018-01-29T11:56:16.809Z,9.37
2018-01-29T11:57:22.754Z,4.40
2018-01-29T11:58:27.335Z,7.97
2018-01-29T11:59:31.513Z,3.80
2018-01-29T12:00:35.704Z,7.80
2018-01-29T12:01:39.884Z,5.80
2018-01-29T12:02:45.651Z,7.03
2018-01-29T12:03:50.286Z,7.33
2018-01-29T12:04:54.745Z,6.50
2018-01-29T12:05:59.163Z,6.20
2018-01-29T12:07:03.364Z,19.13
2018-01-29T12:08:07.794Z,7.93
2018-01-29T12:09:12.003Z,7.73
2018-01-29T12:10:16.572Z,7.60
2018-01-29T12:11:21.399Z,5.97
2018-01-29T12:12:26.098Z,8.53
2018-01-29T12:13:30.770Z,9.93
2018-01-29T12:14:34.975Z,7.73
2018-01-29T12:15:39.912Z,11.97
2018-01-29T12:16:44.106Z,9.50
2018-01-29T12:17:49.334Z,5.73
2018-01-29T12:18:53.634Z,5.87
2018-01-29T12:19:58.025Z,11.60
2018-01-29T12:21:02.976Z,7.13
2018-01-29T12:22:07.179Z,8.83
2018-01-29T12:23:12.198Z,13.30
2018-01-29T12:24:17.639Z,11.03
2018-01-29T12:25:22.352Z,6.77
2018-01-29T12:26:27.698Z,10.90
2018-01-29T12:27:31.908Z,5.33
2018-01-29T12:28:36.935Z,8.70
2018-01-29T12:29:41.892Z,9.83
2018-01-29T12:30:46.771Z,5.23
2018-01-29T12:31:51.206Z,9.83
2018-01-29T12:32:56.229Z,7.13
2018-01-29T12:34:01.232Z,7.40
2018-01-29T12:35:05.390Z,10.77
2018-01-29T12:36:09.606Z,16.57
2018-01-29T12:37:13.797Z,5.83
2018-01-29T12:38:19.168Z,10.70
2018-01-29T12:39:23.488Z,8.30
2018-01-29T12:40:28.156Z,11.33
2018-01-29T12:41:32.427Z,7.83
2018-01-29T12:42:36.683Z,4.50
2018-01-29T12:43:40.898Z,8.70
2018-01-29T12:44:46.269Z,6.17
2018-01-29T12:45:50.572Z,4.90
2018-01-29T12:46:54.807Z,4.53
2018-01-29T12:47:59.046Z,7.77
2018-01-29T12:49:03.254Z,3.07
2018-01-29T12:50:07.461Z,5.80
2018-01-29T12:51:11.702Z,11.73
2018-01-29T12:52:16.737Z,8.17
2018-01-29T12:53:21.008Z,4.43
2018-01-29T12:54:25.262Z,6.17
2018-01-29T12:55:30.249Z,9.77
2018-01-29T12:56:34.503Z,6.67
2018-01-29T12:57:39.522Z,6.20
2018-01-29T12:58:43.716Z,8.60
2018-01-29T12:59:48.416Z,12.30
2018-01-29T13:00:52.683Z,6.03
2018-01-29T13:01:58.011Z,10.53
2018-01-29T13:03:02.971Z,6.53
2018-01-29T13:04:07.150Z,7.10
2018-01-29T13:05:12.103Z,4.47
2018-01-29T13:06:16.374Z,9.70
2018-01-29T13:07:21.084Z,5.10
2018-01-29T13:08:25.418Z,6.70
2018-01-29T13:09:30.419Z,5.50
2018-01-29T13:10:34.616Z,6.37
2018-01-29T13:11:38.783Z,13.77
2018-01-29T13:12:43.766Z,13.10
2018-01-29T13:13:48.389Z,8.87
2018-01-29T13:14:53.197Z,8.93
2018-01-29T13:15:57.466Z,10.90
2018-01-29T13:17:02.691Z,12.33
2018-01-29T13:18:06.879Z,9.63
2018-01-29T13:19:11.044Z,8.40
2018-01-29T13:20:15.273Z,3.23
2018-01-29T13:21:19.784Z,5.97
2018-01-29T13:22:25.021Z,5.87
2018-01-29T13:23:30.451Z,11.53
2018-01-29T13:24:34.615Z,7.13
2018-01-29T13:25:38.799Z,8.73
2018-01-29T13:26:43.010Z,7.90
2018-01-29T13:27:47.599Z,8.80
2018-01-29T13:28:52.631Z,5.80
2018-01-29T13:29:56.898Z,7.40
2018-01-29T13:31:01.078Z,13.10
2018-01-29T13:32:05.340Z,5.23
2018-01-29T13:33:10.368Z,13.77
2018-01-29T13:34:15.438Z,6.27
2018-01-29T13:35:20.593Z,8.93
2018-01-29T13:36:24.960Z,8.63
2018-01-29T13:37:29.542Z,11.10
2018-01-29T13:38:33.785Z,6.27
2018-01-29T13:39:38.767Z,5.47
2018-01-29T13:40:42.950Z,7.70
2018-01-29T13:41:47.673Z,15.17
2018-01-29T13:42:52.919Z,10.73
2018-01-29T13:43:57.275Z,10.23
2018-01-29T13:45:01.467Z,17.53
2018-01-29T13:46:05.830Z,8.43
2018-01-29T13:47:10.022Z,6.53
2018-01-29T13:48:14.994Z,10.00
2018-01-29T13:49:20.782Z,8.33
2018-01-29T13:50:25.221Z,11.70
2018-01-29T13:51:29.471Z,6.60
2018-01-29T13:52:33.733Z,6.23
2018-01-29T13:53:38.734Z,8.50
2018-01-29T13:54:42.916Z,6.77
2018-01-29T13:55:47.191Z,6.40
2018-01-29T13:56:51.860Z,5.90
2018-01-29T13:57:56.132Z,13.03